Decoded Metar for LFLC (CLERMONT FERRAND in FRANCE) (IATA:CFE) | Meteo·Mobile Aviation Weather
aviador You're here:

LFLC Decoded Metar

CLERMONT FERRAND in FRANCE
Report Time2018-10-17 18:00:00
UTC Time2018-10-17 18:18:09
Flight Rules vfr VFR
Wind310° at 04 kt
W.Decomp.*RWY 26: 2.6 kt HW 3.1 kt RCW
RWY 01: 2.0 kt HW 3.5 kt LCW
W.Rank310° ranks 23
Current wind is below 310° avg. (5.4)
Visibility9999 m
Phenomena:N/A
Clouds:N/A
Expected CloudBase > 4,000 ft AGL from Temp-Dew spread
CeilingNone
Temp18°C (ISA +5)
Dew Point08°C (52% RH)
AAT16.1°C
QNH1016 hPa
Density Alt1,736 ft
Elevation1,083 ft
Report Wrong Elevation
Raw Report
LFLC 171800Z AUTO 31004KT CAVOK 18/08 Q1016 NOSIG=

Extra information for LFLC:More info

Metar Taf Metar & Taf Last 4 Metars F.Rules Stats Wind Profile Meteogram Temp Stats Airport Information Weather charts Add Link Nearby VenuesMetar ALERT Operation Metar Decoded Social comments